Glendale, Wisconsin
Current Conditions -  °F | °C
As of 3:15 AM on Friday 19 Dec 2014 (Local Time) from KMWC Reporting Station
Overcast Overcast  
Wind Chill: 27°   Ceiling: 2600
Heat Index: 27°   Visibility: 10mi
Dew Point: 19°   Wind: 3mph
Humidity: 74%   Direction: 300°WNW
Pressure: 30.28"   Gusts: NA
Location:  43.13°N, 87.93°W
Report Text: KMWC 190915Z AUTO 30003KT 10SM OVC026 M03/M07 A3028 RMK AO2
Loading
Personal Weather Stations






























Interactive Weather Map New forecast layout! Learn more

10-Day Weather Forecast

Advertisements
Track Severe Weather on mobile